Weather at UMC Trauma Center Helipad

Public forecast

Using degrees Fahrenheit for public forecast. Weather courtesy of forecast.io.

Closest aviation weather report (METAR) to UMC Trauma Center Helipad

Closest report is North Las Vegas Metropolitan International Airport, 3.2 nm (6.0 km) NNW. Retrieved 2021/06/12 10:53 UTC (8 minutes ago):

KVGT 121053Z AUTO 30003KT 10SM CLR 23/M09 A2981 RMK AO2 SLP086 T02331089

Closest aviation forecast (TAF) to UMC Trauma Center Helipad

Closest forecast is North Las Vegas Metropolitan International Airport, 3.2 nm (6.0 km) NNW. Retrieved 2021/06/12 06:22 UTC (5 hours ago):

TAF KVGT 120520Z 1206/1306 VRB05KT P6SM SKC FM121800 15008KT P6SM SKC FM130300 23005KT P6SM SKC